createdAt,value
2023-04-19T00:00:49.641Z,9.97
2023-04-19T00:01:49.821Z,9.95
2023-04-19T00:02:50.101Z,9.95
2023-04-19T00:03:50.367Z,9.97
2023-04-19T00:04:50.361Z,9.98
2023-04-19T00:05:50.479Z,10.01
2023-04-19T00:06:50.649Z,10.04
2023-04-19T00:07:50.821Z,10.07
2023-04-19T00:08:50.973Z,10.07
2023-04-19T00:09:51.158Z,10.07
2023-04-19T00:10:51.312Z,10.09
2023-04-19T00:11:51.507Z,10.10
2023-04-19T00:12:51.657Z,10.15
2023-04-19T00:13:51.820Z,10.09
2023-04-19T00:14:51.987Z,10.09
2023-04-19T00:15:52.150Z,10.13
2023-04-19T00:16:52.374Z,10.17
2023-04-19T00:17:52.502Z,10.17
2023-04-19T00:18:52.687Z,10.17
2023-04-19T00:19:52.829Z,10.16
2023-04-19T00:20:52.986Z,10.16
2023-04-19T00:21:53.162Z,10.17
2023-04-19T00:22:53.328Z,10.16
2023-04-19T00:23:53.493Z,10.19
2023-04-19T00:24:53.664Z,10.19
2023-04-19T00:25:53.829Z,10.19
2023-04-19T00:26:54.008Z,10.22
2023-04-19T00:27:54.175Z,10.23
2023-04-19T00:28:54.342Z,10.23
2023-04-19T00:29:54.502Z,10.22
2023-04-19T00:30:54.727Z,10.23
2023-04-19T00:31:54.871Z,10.22
2023-04-19T00:32:55.080Z,10.22
2023-04-19T00:33:55.193Z,10.19
2023-04-19T00:34:55.354Z,10.20
2023-04-19T00:35:55.531Z,10.19
2023-04-19T00:36:55.709Z,10.19
2023-04-19T00:37:55.851Z,10.22
2023-04-19T00:38:56.019Z,10.22
2023-04-19T00:39:56.180Z,10.20
2023-04-19T00:40:56.354Z,10.20
2023-04-19T00:41:56.541Z,10.22
2023-04-19T00:42:56.701Z,10.26
2023-04-19T00:43:56.861Z,10.28
2023-04-19T00:44:57.032Z,10.33
2023-04-19T00:45:57.240Z,10.33
2023-04-19T00:46:57.387Z,10.34
2023-04-19T00:47:57.589Z,10.35
2023-04-19T00:48:57.751Z,10.34
2023-04-19T00:49:57.913Z,10.37
2023-04-19T00:50:58.110Z,10.38
2023-04-19T00:51:58.255Z,10.37
2023-04-19T00:52:58.421Z,10.38
2023-04-19T00:53:58.623Z,10.41
2023-04-19T00:54:58.780Z,10.41
2023-04-19T00:55:58.980Z,10.42
2023-04-19T00:56:59.165Z,10.44
2023-04-19T00:57:59.318Z,10.46
2023-04-19T00:58:59.493Z,10.48
2023-04-19T00:59:59.653Z,10.49
2023-04-19T01:01:00.026Z,10.51
2023-04-19T01:02:00.136Z,10.49
2023-04-19T01:03:00.344Z,10.51
2023-04-19T01:04:00.438Z,10.53
2023-04-19T01:05:00.504Z,10.51
2023-04-19T01:06:00.691Z,10.49
2023-04-19T01:07:00.847Z,10.48
2023-04-19T01:08:01.038Z,10.51
2023-04-19T01:09:01.175Z,10.51
2023-04-19T01:10:01.344Z,10.48
2023-04-19T01:11:01.563Z,10.48
2023-04-19T01:12:01.702Z,10.46
2023-04-19T01:13:01.851Z,10.48
2023-04-19T01:14:02.029Z,10.48
2023-04-19T01:15:02.198Z,10.46
2023-04-19T01:16:02.448Z,10.44
2023-04-19T01:17:02.553Z,10.48
2023-04-19T01:18:02.759Z,10.48
2023-04-19T01:19:02.906Z,10.48
2023-04-19T01:20:03.071Z,10.46
2023-04-19T01:21:03.247Z,10.46
2023-04-19T01:22:03.422Z,10.49
2023-04-19T01:23:03.579Z,10.46
2023-04-19T01:24:03.753Z,10.46
2023-04-19T01:25:03.917Z,10.46
2023-04-19T01:26:04.100Z,10.44
2023-04-19T01:27:04.275Z,10.49
2023-04-19T01:28:04.430Z,10.44
2023-04-19T01:29:04.602Z,10.44
2023-04-19T01:30:04.790Z,10.44
2023-04-19T01:31:05.021Z,10.44
2023-04-19T01:32:05.130Z,10.46
2023-04-19T01:33:05.318Z,10.42
2023-04-19T01:34:05.467Z,10.41
2023-04-19T01:35:05.637Z,10.42
2023-04-19T01:36:05.817Z,10.42
2023-04-19T01:37:05.991Z,10.38
2023-04-19T01:38:06.156Z,10.37
2023-04-19T01:39:06.300Z,10.35
2023-04-19T01:40:06.516Z,10.34
2023-04-19T01:41:06.690Z,10.30
2023-04-19T01:42:06.854Z,10.31
2023-04-19T01:43:07.040Z,10.28
2023-04-19T01:44:07.220Z,10.23
2023-04-19T01:45:07.390Z,10.25
2023-04-19T01:46:07.557Z,10.20
2023-04-19T01:47:07.800Z,10.19
2023-04-19T01:48:08.014Z,10.17
2023-04-19T01:49:08.098Z,10.16
2023-04-19T01:50:08.272Z,10.13
2023-04-19T01:51:08.437Z,10.10
2023-04-19T01:52:08.600Z,10.09
2023-04-19T01:53:08.754Z,10.02
2023-04-19T01:54:08.951Z,9.98
2023-04-19T01:55:09.116Z,9.95
2023-04-19T01:56:09.326Z,9.95
2023-04-19T01:57:09.497Z,9.94
2023-04-19T01:58:09.651Z,9.92
2023-04-19T01:59:09.852Z,9.89
2023-04-19T02:00:10.022Z,9.87
2023-04-19T02:01:10.214Z,9.86
2023-04-19T02:02:10.394Z,9.82
2023-04-19T02:03:10.645Z,9.80
2023-04-19T02:04:10.730Z,9.79
2023-04-19T02:05:10.878Z,9.74
2023-04-19T02:06:11.039Z,9.72
2023-04-19T02:07:11.214Z,9.72
2023-04-19T02:08:11.384Z,9.69
2023-04-19T02:09:11.556Z,9.68
2023-04-19T02:10:11.732Z,9.65
2023-04-19T02:11:11.887Z,9.65
2023-04-19T02:12:12.070Z,9.61
2023-04-19T02:13:12.224Z,9.59
2023-04-19T02:14:12.388Z,9.59
2023-04-19T02:15:12.566Z,9.55
2023-04-19T02:16:12.781Z,9.55
2023-04-19T02:17:12.911Z,9.54
2023-04-19T02:18:13.071Z,9.56
2023-04-19T02:19:13.240Z,9.51
2023-04-19T02:20:13.411Z,9.50
2023-04-19T02:21:13.587Z,9.50
2023-04-19T02:22:13.753Z,9.48
2023-04-19T02:23:13.909Z,9.44
2023-04-19T02:24:14.334Z,9.40
2023-04-19T02:25:14.291Z,9.37
2023-04-19T02:26:14.471Z,9.37
2023-04-19T02:27:14.621Z,9.31
2023-04-19T02:28:14.771Z,9.29
2023-04-19T02:29:14.939Z,9.25
2023-04-19T02:30:15.154Z,9.21
2023-04-19T02:31:15.314Z,9.19
2023-04-19T02:32:15.521Z,9.14
2023-04-19T02:33:15.692Z,9.08
2023-04-19T02:34:16.292Z,9.08
2023-04-19T02:35:16.054Z,9.06
2023-04-19T02:36:16.214Z,9.02
2023-04-19T02:37:16.364Z,8.97
2023-04-19T02:38:16.557Z,8.91
2023-04-19T02:39:16.716Z,8.89
2023-04-19T02:40:16.899Z,8.81
2023-04-19T02:41:17.056Z,8.79
2023-04-19T02:42:17.249Z,8.76
2023-04-19T02:43:17.400Z,8.74
2023-04-19T02:44:17.771Z,8.69
2023-04-19T02:45:17.781Z,8.64
2023-04-19T02:46:17.985Z,8.63
2023-04-19T02:47:18.104Z,8.61
2023-04-19T02:48:18.291Z,8.56
2023-04-19T02:49:18.470Z,8.53
2023-04-19T02:50:18.653Z,8.53
2023-04-19T02:51:18.830Z,8.51
2023-04-19T02:52:18.999Z,8.49
2023-04-19T02:53:19.147Z,8.48
2023-04-19T02:54:19.384Z,8.45
2023-04-19T02:55:19.519Z,8.42
2023-04-19T02:56:19.679Z,8.38
2023-04-19T02:57:19.840Z,8.38
2023-04-19T02:58:19.996Z,8.36
2023-04-19T02:59:20.201Z,8.34
2023-04-19T03:00:20.339Z,8.34
2023-04-19T03:01:20.540Z,8.31
2023-04-19T03:02:20.746Z,8.33
2023-04-19T03:03:20.937Z,8.31
2023-04-19T03:04:21.098Z,8.31
2023-04-19T03:05:21.222Z,8.28
2023-04-19T03:06:21.441Z,8.28
2023-04-19T03:07:21.571Z,8.30
2023-04-19T03:08:21.741Z,8.27
2023-04-19T03:09:21.897Z,8.27
2023-04-19T03:10:22.063Z,8.27
2023-04-19T03:11:22.243Z,8.20
2023-04-19T03:12:22.433Z,8.20
2023-04-19T03:13:22.599Z,8.19
2023-04-19T03:14:22.770Z,8.19
2023-04-19T03:15:22.945Z,8.19
2023-04-19T03:16:23.306Z,8.18
2023-04-19T03:17:23.296Z,8.12
2023-04-19T03:18:23.462Z,8.12
2023-04-19T03:19:23.625Z,8.09
2023-04-19T03:20:23.785Z,8.09
2023-04-19T03:21:23.941Z,8.08
2023-04-19T03:22:24.160Z,8.06
2023-04-19T03:23:24.288Z,8.09
2023-04-19T03:24:24.491Z,8.03
2023-04-19T03:25:24.644Z,8.03
2023-04-19T03:26:24.847Z,8.00
2023-04-19T03:27:24.987Z,8.01
2023-04-19T03:28:25.189Z,7.98
2023-04-19T03:29:25.362Z,7.94
2023-04-19T03:30:25.525Z,7.93
2023-04-19T03:31:25.703Z,7.91
2023-04-19T03:32:25.898Z,7.93
2023-04-19T03:33:26.031Z,7.88
2023-04-19T03:34:26.240Z,7.83
2023-04-19T03:35:26.461Z,7.80
2023-04-19T03:36:26.582Z,7.80
2023-04-19T03:37:26.780Z,7.79
2023-04-19T03:38:26.926Z,7.77
2023-04-19T03:39:27.098Z,7.77
2023-04-19T03:40:27.277Z,7.76
2023-04-19T03:41:27.469Z,7.73
2023-04-19T03:42:28.996Z,7.73
2023-04-19T03:43:27.799Z,7.72
2023-04-19T03:44:27.990Z,7.70
2023-04-19T03:45:28.138Z,7.67
2023-04-19T03:46:28.327Z,7.61
2023-04-19T03:47:28.540Z,7.61
2023-04-19T03:48:28.686Z,7.58
2023-04-19T03:49:28.872Z,7.57
2023-04-19T03:50:29.018Z,7.57
2023-04-19T03:51:29.197Z,7.57
2023-04-19T03:52:29.383Z,7.56
2023-04-19T03:53:29.554Z,7.54
2023-04-19T03:54:29.744Z,7.51
2023-04-19T03:55:29.900Z,7.53
2023-04-19T03:56:30.117Z,7.50
2023-04-19T03:57:30.244Z,7.50
2023-04-19T03:58:30.438Z,7.43
2023-04-19T03:59:30.639Z,7.42
2023-04-19T04:00:30.792Z,7.40
2023-04-19T04:01:30.964Z,7.42
2023-04-19T04:02:31.259Z,7.38
2023-04-19T04:03:31.563Z,7.36
2023-04-19T04:04:31.824Z,7.38
2023-04-19T04:05:31.761Z,7.39
2023-04-19T04:06:31.825Z,7.42
2023-04-19T04:07:32.000Z,7.38
2023-04-19T04:08:32.197Z,7.39
2023-04-19T04:09:32.366Z,7.38
2023-04-19T04:10:32.551Z,7.32
2023-04-19T04:11:32.732Z,7.29
2023-04-19T04:12:32.909Z,7.28
2023-04-19T04:13:33.066Z,7.25
2023-04-19T04:14:33.275Z,7.32
2023-04-19T04:15:33.423Z,7.28
2023-04-19T04:16:33.645Z,7.29
2023-04-19T04:17:33.834Z,7.29
2023-04-19T04:18:33.968Z,7.29
2023-04-19T04:19:34.170Z,7.32
2023-04-19T04:20:34.348Z,7.33
2023-04-19T04:21:34.511Z,7.36
2023-04-19T04:22:34.674Z,7.39
2023-04-19T04:23:34.861Z,7.38
2023-04-19T04:24:35.030Z,7.43
2023-04-19T04:25:35.181Z,7.48
2023-04-19T04:26:35.340Z,7.50
2023-04-19T04:27:35.524Z,7.43
2023-04-19T04:28:35.718Z,7.50
2023-04-19T04:29:35.912Z,7.56
2023-04-19T04:30:36.082Z,7.58
2023-04-19T04:31:36.330Z,7.66
2023-04-19T04:32:36.454Z,7.67
2023-04-19T04:33:36.610Z,7.76
2023-04-19T04:34:36.792Z,7.87
2023-04-19T04:35:36.975Z,7.95
2023-04-19T04:36:37.145Z,8.08
2023-04-19T04:37:37.330Z,8.10
2023-04-19T04:38:37.540Z,8.13
2023-04-19T04:39:37.655Z,8.18
2023-04-19T04:40:37.829Z,8.28
2023-04-19T04:41:37.991Z,8.37
2023-04-19T04:42:38.157Z,8.46
2023-04-19T04:43:38.353Z,8.64
2023-04-19T04:44:38.561Z,8.87
2023-04-19T04:45:38.744Z,9.06
2023-04-19T04:46:38.876Z,9.28
2023-04-19T04:47:39.089Z,9.46
2023-04-19T04:48:39.240Z,9.65
2023-04-19T04:49:39.413Z,9.79
2023-04-19T04:50:39.584Z,9.94
2023-04-19T04:51:39.756Z,10.12
2023-04-19T04:52:39.957Z,10.34
2023-04-19T04:53:40.116Z,10.54
2023-04-19T04:54:40.292Z,10.76
2023-04-19T04:55:40.479Z,10.97
2023-04-19T04:56:40.732Z,11.18
2023-04-19T04:57:40.831Z,11.33
2023-04-19T04:58:41.029Z,11.48
2023-04-19T04:59:41.189Z,11.57
2023-04-19T05:00:41.325Z,11.66
2023-04-19T05:01:41.641Z,11.80
2023-04-19T05:02:41.740Z,11.84
2023-04-19T05:03:41.873Z,11.94
2023-04-19T05:04:42.171Z,12.04
2023-04-19T05:05:44.347Z,12.10
2023-04-19T05:06:42.405Z,12.21
2023-04-19T05:07:42.583Z,12.35
2023-04-19T05:08:42.780Z,12.32
2023-04-19T05:09:42.934Z,12.39
2023-04-19T05:10:43.119Z,12.46
2023-04-19T05:11:43.295Z,12.55
2023-04-19T05:12:43.499Z,12.70
2023-04-19T05:13:43.660Z,12.93
2023-04-19T05:14:43.814Z,13.15
2023-04-19T05:15:43.978Z,13.41
2023-04-19T05:16:44.205Z,13.53
2023-04-19T05:17:44.348Z,13.57
2023-04-19T05:18:44.519Z,13.70
2023-04-19T05:19:44.673Z,13.74
2023-04-19T05:20:44.829Z,13.75
2023-04-19T05:21:45.003Z,13.78
2023-04-19T05:22:45.166Z,13.99
2023-04-19T05:23:45.376Z,14.23
2023-04-19T05:24:45.522Z,14.44
2023-04-19T05:25:45.710Z,14.47
2023-04-19T05:26:45.859Z,14.63
2023-04-19T05:27:46.064Z,14.82
2023-04-19T05:28:46.251Z,14.99
2023-04-19T05:29:46.410Z,15.07
2023-04-19T05:30:46.614Z,15.24
2023-04-19T05:31:46.865Z,15.36
2023-04-19T05:32:46.954Z,15.39
2023-04-19T05:33:47.105Z,15.46
2023-04-19T05:34:47.253Z,15.42
2023-04-19T05:35:47.414Z,15.31
2023-04-19T05:36:47.574Z,15.15
2023-04-19T05:37:47.771Z,15.15
2023-04-19T05:38:47.915Z,15.10
2023-04-19T05:39:48.107Z,15.02
2023-04-19T05:40:48.243Z,15.02
2023-04-19T05:41:48.415Z,14.94
2023-04-19T05:42:48.610Z,14.86
2023-04-19T05:43:48.754Z,14.85
2023-04-19T05:44:48.941Z,14.86
2023-04-19T05:45:49.129Z,14.85
2023-04-19T05:46:49.322Z,14.82
2023-04-19T05:47:49.563Z,14.84
2023-04-19T05:48:49.642Z,14.82
2023-04-19T05:49:49.816Z,14.89
2023-04-19T05:50:49.965Z,14.96
2023-04-19T05:51:50.169Z,15.11
2023-04-19T05:52:50.354Z,15.28
2023-04-19T05:53:50.515Z,15.33
2023-04-19T05:54:50.677Z,15.19
2023-04-19T05:55:50.875Z,15.22
2023-04-19T05:56:51.042Z,15.24
2023-04-19T05:57:51.272Z,15.24
2023-04-19T05:58:51.372Z,14.99
2023-04-19T05:59:51.562Z,14.66
2023-04-19T06:00:51.796Z,14.44
2023-04-19T06:01:51.936Z,14.29
2023-04-19T06:02:52.201Z,14.11
2023-04-19T06:03:52.622Z,13.97
2023-04-19T06:04:52.489Z,13.81
2023-04-19T06:05:52.721Z,13.72
2023-04-19T06:06:52.810Z,13.71
2023-04-19T06:07:55.534Z,13.77
2023-04-19T06:08:55.005Z,13.77
2023-04-19T06:09:53.325Z,13.74
2023-04-19T06:10:58.237Z,13.72
2023-04-19T06:11:54.652Z,13.78
2023-04-19T06:12:53.796Z,13.92
2023-04-19T06:13:53.938Z,14.10
2023-04-19T06:14:54.127Z,14.33
2023-04-19T06:15:54.335Z,14.50
2023-04-19T06:16:54.455Z,14.63
2023-04-19T06:17:54.688Z,14.66
2023-04-19T06:18:54.774Z,14.60
2023-04-19T06:19:54.953Z,14.59
2023-04-19T06:20:55.124Z,14.59
2023-04-19T06:21:55.291Z,14.60
2023-04-19T06:22:55.582Z,14.62
2023-04-19T06:23:55.642Z,14.63
2023-04-19T06:24:55.806Z,14.54
2023-04-19T06:25:55.977Z,14.50
2023-04-19T06:26:56.148Z,14.48
2023-04-19T06:27:56.299Z,14.44
2023-04-19T06:28:56.483Z,14.36
2023-04-19T06:29:56.654Z,14.29
2023-04-19T06:30:56.831Z,14.22
2023-04-19T06:31:57.124Z,14.05
2023-04-19T06:32:57.231Z,14.00
2023-04-19T06:33:57.375Z,14.00
2023-04-19T06:34:57.537Z,14.03
2023-04-19T06:35:57.732Z,14.14
2023-04-19T06:36:57.912Z,14.28
2023-04-19T06:37:58.069Z,14.43
2023-04-19T06:38:58.243Z,14.63
2023-04-19T06:39:58.444Z,14.92
2023-04-19T06:40:58.586Z,15.37
2023-04-19T06:41:58.947Z,15.73
2023-04-19T06:42:58.895Z,15.94
2023-04-19T06:43:59.093Z,16.01
2023-04-19T06:44:59.255Z,16.09
2023-04-19T06:45:59.435Z,16.09
2023-04-19T06:46:59.607Z,16.21
2023-04-19T06:47:59.791Z,16.36
2023-04-19T06:48:59.928Z,16.47
2023-04-19T06:50:00.108Z,16.47
2023-04-19T06:51:00.253Z,16.43
2023-04-19T06:52:00.442Z,16.41
2023-04-19T06:53:00.894Z,16.46
2023-04-19T06:54:00.751Z,16.49
2023-04-19T06:55:00.927Z,16.49
2023-04-19T06:56:01.237Z,16.60
2023-04-19T06:57:01.264Z,16.68
2023-04-19T06:58:01.439Z,16.61
2023-04-19T06:59:01.582Z,16.64
2023-04-19T07:00:01.757Z,16.65
2023-04-19T07:01:01.990Z,16.68
2023-04-19T07:02:02.207Z,16.75
2023-04-19T07:03:02.438Z,16.87
2023-04-19T07:04:02.677Z,17.01
2023-04-19T07:05:02.645Z,17.12
2023-04-19T07:06:02.793Z,17.23
2023-04-19T07:07:02.954Z,17.36
2023-04-19T07:08:03.207Z,17.49
2023-04-19T07:09:03.317Z,17.56
2023-04-19T07:10:03.481Z,17.51
2023-04-19T07:11:03.633Z,17.42
2023-04-19T07:12:03.825Z,17.39
2023-04-19T07:13:03.958Z,17.41
2023-04-19T07:14:04.133Z,17.36
2023-04-19T07:15:04.285Z,17.51
2023-04-19T07:16:04.499Z,17.79
2023-04-19T07:17:04.662Z,18.16
2023-04-19T07:18:04.882Z,18.56
2023-04-19T07:19:05.007Z,18.88
2023-04-19T07:20:05.182Z,19.24
2023-04-19T07:21:05.332Z,19.59
2023-04-19T07:22:05.556Z,19.88
2023-04-19T07:23:05.691Z,20.13
2023-04-19T07:24:05.870Z,20.32
2023-04-19T07:25:06.075Z,20.51
2023-04-19T07:26:06.253Z,20.67
2023-04-19T07:27:06.452Z,20.82
2023-04-19T07:28:06.612Z,20.80
2023-04-19T07:29:06.800Z,20.70
2023-04-19T07:30:07.060Z,20.69
2023-04-19T07:31:07.171Z,20.74
2023-04-19T07:32:07.381Z,20.96
2023-04-19T07:33:07.494Z,20.97
2023-04-19T07:34:07.639Z,21.15
2023-04-19T07:35:07.835Z,21.30
2023-04-19T07:36:08.018Z,21.36
2023-04-19T07:37:08.208Z,21.55
2023-04-19T07:38:08.362Z,21.83
2023-04-19T07:39:08.533Z,22.18
2023-04-19T07:40:08.742Z,22.47
2023-04-19T07:41:08.888Z,22.70
2023-04-19T07:42:09.096Z,22.80
2023-04-19T07:43:09.238Z,22.93
2023-04-19T07:44:09.405Z,22.96
2023-04-19T07:45:09.563Z,23.05
2023-04-19T07:46:09.791Z,23.02
2023-04-19T07:47:09.927Z,23.12
2023-04-19T07:48:10.191Z,23.21
2023-04-19T07:49:10.246Z,23.27
2023-04-19T07:50:10.440Z,23.37
2023-04-19T07:51:10.598Z,23.41
2023-04-19T07:52:10.783Z,23.34
2023-04-19T07:53:10.948Z,23.44
2023-04-19T07:54:11.122Z,23.36
2023-04-19T07:55:11.284Z,23.48
2023-04-19T07:56:12.902Z,23.56
2023-04-19T07:57:11.660Z,23.63
2023-04-19T07:58:11.812Z,23.61
2023-04-19T07:59:11.963Z,23.59
2023-04-19T08:00:12.146Z,23.44
2023-04-19T08:01:12.361Z,23.39
2023-04-19T08:02:12.604Z,23.20
2023-04-19T08:03:12.834Z,23.05
2023-04-19T08:04:13.273Z,22.98
2023-04-19T08:05:13.146Z,23.03
2023-04-19T08:06:13.218Z,23.17
2023-04-19T08:07:13.369Z,23.34
2023-04-19T08:08:13.549Z,23.32
2023-04-19T08:09:13.785Z,23.08
2023-04-19T08:10:13.867Z,22.91
2023-04-19T08:11:14.042Z,22.91
2023-04-19T08:12:23.091Z,23.05
2023-04-19T08:13:15.384Z,23.03
2023-04-19T08:14:28.365Z,23.23
2023-04-19T08:16:51.828Z,23.58
2023-04-19T08:17:24.320Z,23.39
2023-04-19T08:18:16.284Z,23.25
2023-04-19T08:19:15.396Z,23.18
2023-04-19T08:20:15.588Z,23.32
2023-04-19T08:21:15.763Z,23.48
2023-04-19T08:22:15.963Z,23.69
2023-04-19T08:23:22.677Z,24.01
2023-04-19T08:24:17.570Z,24.11
2023-04-19T08:25:16.454Z,24.33
2023-04-19T08:26:16.632Z,24.54
2023-04-19T08:27:16.828Z,24.65
2023-04-19T08:28:17.015Z,24.73
2023-04-19T08:29:18.221Z,24.73
2023-04-19T08:30:17.345Z,24.81
2023-04-19T08:31:17.567Z,24.89
2023-04-19T08:32:17.700Z,24.91
2023-04-19T08:33:17.991Z,25.25
2023-04-19T08:34:18.062Z,25.59
2023-04-19T08:35:18.233Z,25.77
2023-04-19T08:36:22.446Z,25.96
2023-04-19T08:37:19.612Z,26.09
2023-04-19T08:38:18.758Z,26.09
2023-04-19T08:39:31.807Z,25.85
2023-04-19T08:40:20.138Z,25.60
2023-04-19T08:41:19.288Z,25.47
2023-04-19T08:42:33.260Z,25.36
2023-04-19T08:43:20.599Z,25.38
2023-04-19T08:44:32.535Z,25.17
2023-04-19T08:45:27.808Z,25.21
2023-04-19T08:46:21.162Z,25.47
2023-04-19T08:47:30.156Z,25.59
2023-04-19T08:48:21.462Z,25.77
2023-04-19T08:49:20.602Z,25.59
2023-04-19T08:50:32.202Z,25.63
2023-04-19T08:51:21.977Z,25.73
2023-04-19T08:52:21.116Z,25.91
2023-04-19T08:53:25.797Z,26.10
2023-04-19T08:54:21.494Z,26.00
2023-04-19T08:55:21.690Z,25.85
2023-04-19T08:56:34.327Z,25.21
2023-04-19T08:57:23.051Z,24.60
2023-04-19T08:58:32.799Z,24.68
2023-04-19T08:59:23.463Z,24.92
2023-04-19T09:00:22.566Z,24.99
2023-04-19T09:02:22.953Z,23.76
2023-04-19T09:03:23.274Z,22.91
2023-04-19T09:04:36.254Z,22.38
2023-04-19T09:05:24.541Z,21.92
2023-04-19T09:06:23.729Z,21.45
2023-04-19T09:07:23.666Z,21.79
2023-04-19T09:08:23.852Z,22.50
2023-04-19T09:09:35.498Z,23.02
2023-04-19T09:10:25.171Z,23.32
2023-04-19T09:11:24.366Z,23.46
2023-04-19T09:12:24.572Z,23.47
2023-04-19T09:13:24.710Z,23.69
2023-04-19T09:14:24.887Z,24.28
2023-04-19T09:15:25.067Z,24.92
2023-04-19T09:16:25.433Z,25.36
2023-04-19T09:17:25.482Z,25.78
2023-04-19T09:18:25.617Z,26.15
2023-04-19T09:19:25.879Z,26.05
2023-04-19T09:20:26.020Z,25.77
2023-04-19T09:21:26.157Z,25.22
2023-04-19T09:22:26.385Z,24.53
2023-04-19T09:23:26.508Z,23.78
2023-04-19T09:24:26.690Z,23.02
2023-04-19T09:26:27.021Z,22.07
2023-04-19T09:27:27.207Z,21.77
2023-04-19T09:28:27.412Z,22.13
2023-04-19T09:29:27.566Z,22.39
2023-04-19T09:30:32.343Z,22.62
2023-04-19T09:32:28.313Z,23.06
2023-04-19T09:33:28.450Z,22.83
2023-04-19T09:34:28.441Z,22.39
2023-04-19T09:35:28.620Z,21.77
2023-04-19T09:36:28.777Z,21.29
2023-04-19T09:38:29.148Z,20.67
2023-04-19T09:39:29.311Z,20.56
2023-04-19T09:40:29.497Z,20.24
2023-04-19T09:41:29.675Z,20.11
2023-04-19T09:42:51.022Z,19.81
2023-04-19T09:43:53.744Z,19.82
2023-04-19T09:44:53.003Z,20.65
2023-04-19T09:45:31.532Z,21.67
2023-04-19T09:46:30.629Z,22.63
2023-04-19T09:47:30.776Z,23.47
2023-04-19T09:48:30.925Z,24.16
2023-04-19T09:49:46.001Z,24.58
2023-04-19T09:50:33.816Z,24.95
2023-04-19T09:51:32.503Z,25.50
2023-04-19T09:52:31.623Z,26.02
2023-04-19T09:53:31.841Z,26.52
2023-04-19T09:54:31.996Z,26.73
2023-04-19T09:55:39.196Z,26.29
2023-04-19T09:56:33.359Z,25.62
2023-04-19T09:57:32.508Z,25.21
2023-04-19T09:59:32.863Z,24.74
2023-04-19T10:00:38.979Z,24.38
2023-04-19T10:01:34.230Z,24.01
2023-04-19T10:02:33.477Z,23.66
2023-04-19T10:03:33.661Z,23.15
2023-04-19T10:04:54.672Z,22.53
2023-04-19T10:05:34.950Z,22.04
2023-04-19T10:06:51.671Z,21.45
2023-04-19T10:07:35.250Z,20.97
2023-04-19T10:08:34.395Z,20.69
2023-04-19T10:09:37.646Z,20.67
2023-04-19T10:10:42.091Z,20.87
2023-04-19T10:11:35.905Z,20.82
2023-04-19T10:13:35.252Z,20.47
2023-04-19T10:14:35.420Z,20.29
2023-04-19T10:15:49.523Z,20.19
2023-04-19T10:16:36.782Z,20.03
2023-04-19T10:17:35.978Z,19.86
2023-04-19T10:18:36.125Z,19.66
2023-04-19T10:19:36.289Z,19.51
2023-04-19T10:20:36.457Z,19.31
2023-04-19T10:21:36.622Z,19.12
2023-04-19T10:22:36.786Z,19.00
2023-04-19T10:23:36.965Z,18.93
2023-04-19T10:24:37.157Z,18.83
2023-04-19T10:25:37.341Z,18.80
2023-04-19T10:26:37.474Z,18.71
2023-04-19T10:27:37.657Z,18.66
2023-04-19T10:28:37.848Z,18.63
2023-04-19T10:29:38.003Z,18.50
2023-04-19T10:30:38.180Z,18.41
2023-04-19T10:31:38.404Z,18.35
2023-04-19T10:32:38.571Z,18.26
2023-04-19T10:33:38.734Z,18.19
2023-04-19T10:34:38.881Z,18.16
2023-04-19T10:35:39.154Z,18.08
2023-04-19T10:36:39.245Z,18.01
2023-04-19T10:37:39.443Z,17.94
2023-04-19T10:38:39.602Z,18.00
2023-04-19T10:39:39.779Z,17.98
2023-04-19T10:40:39.998Z,17.86
2023-04-19T10:41:40.145Z,17.79
2023-04-19T10:42:40.322Z,17.76
2023-04-19T10:43:40.501Z,17.76
2023-04-19T10:44:40.663Z,17.68
2023-04-19T10:45:40.897Z,17.79
2023-04-19T10:46:41.015Z,17.83
2023-04-19T10:47:41.311Z,17.87
2023-04-19T10:48:41.382Z,17.79
2023-04-19T10:49:41.573Z,17.72
2023-04-19T10:50:41.746Z,17.70
2023-04-19T10:51:41.896Z,17.64
2023-04-19T10:52:42.082Z,17.63
2023-04-19T10:53:42.264Z,17.65
2023-04-19T10:54:42.427Z,17.70
2023-04-19T10:55:42.633Z,17.74
2023-04-19T10:56:42.774Z,17.74
2023-04-19T10:57:42.962Z,17.76
2023-04-19T10:58:43.132Z,17.79
2023-04-19T10:59:43.337Z,17.74
2023-04-19T11:00:43.461Z,17.78
2023-04-19T11:01:43.741Z,17.79
2023-04-19T11:02:43.853Z,17.74
2023-04-19T11:03:44.286Z,17.67
2023-04-19T11:04:44.155Z,17.65
2023-04-19T11:05:44.319Z,17.54
2023-04-19T11:06:44.462Z,17.54
2023-04-19T11:07:44.650Z,17.49
2023-04-19T11:08:44.833Z,17.46
2023-04-19T11:09:45.003Z,17.36
2023-04-19T11:10:45.196Z,17.27
2023-04-19T11:11:45.395Z,17.24
2023-04-19T11:12:45.620Z,17.27
2023-04-19T11:13:45.742Z,17.30
2023-04-19T11:14:45.996Z,17.26
2023-04-19T11:15:46.116Z,17.31
2023-04-19T11:16:46.603Z,17.38
2023-04-19T11:17:46.489Z,17.46
2023-04-19T11:18:46.577Z,17.54
2023-04-19T11:19:46.786Z,17.57
2023-04-19T11:20:46.940Z,17.64
2023-04-19T11:21:47.108Z,17.67
2023-04-19T11:22:47.281Z,17.67
2023-04-19T11:23:47.429Z,17.76
2023-04-19T11:24:47.607Z,17.86
2023-04-19T11:25:47.807Z,17.98
2023-04-19T11:26:47.925Z,18.04
2023-04-19T11:27:48.120Z,18.15
2023-04-19T11:28:48.294Z,18.31
2023-04-19T11:29:48.559Z,18.26
2023-04-19T11:30:48.662Z,18.28
2023-04-19T11:31:48.957Z,18.22
2023-04-19T11:32:49.135Z,18.26
2023-04-19T11:33:49.152Z,18.31
2023-04-19T11:34:49.359Z,18.29
2023-04-19T11:35:49.526Z,18.26
2023-04-19T11:36:49.681Z,18.28
2023-04-19T11:37:49.834Z,18.28
2023-04-19T11:38:50.015Z,18.38
2023-04-19T11:39:50.173Z,18.47
2023-04-19T11:40:50.354Z,18.52
2023-04-19T11:41:50.507Z,18.56
2023-04-19T11:42:50.959Z,18.60
2023-04-19T11:43:50.895Z,18.59
2023-04-19T11:44:51.118Z,18.53
2023-04-19T11:45:51.228Z,18.45
2023-04-19T11:46:51.489Z,18.41
2023-04-19T11:47:51.595Z,18.35
2023-04-19T11:48:51.711Z,18.23
2023-04-19T11:49:51.901Z,18.11
2023-04-19T11:50:52.047Z,18.04
2023-04-19T11:51:52.259Z,17.94
2023-04-19T11:52:52.407Z,17.89
2023-04-19T11:53:52.596Z,17.83
2023-04-19T11:54:52.780Z,17.80
2023-04-19T11:55:52.974Z,17.71
2023-04-19T11:56:53.123Z,17.68
2023-04-19T11:57:53.321Z,17.64
2023-04-19T11:58:53.479Z,17.67
2023-04-19T11:59:53.716Z,17.70
2023-04-19T12:00:53.851Z,17.74
2023-04-19T12:01:54.021Z,17.83
2023-04-19T12:02:54.350Z,17.89
2023-04-19T12:03:54.661Z,18.07
2023-04-19T12:04:54.732Z,18.16
2023-04-19T12:05:54.798Z,18.25
2023-04-19T12:06:54.841Z,18.29
2023-04-19T12:07:55.035Z,18.33
2023-04-19T12:08:55.247Z,18.31
2023-04-19T12:09:55.393Z,18.26
2023-04-19T12:10:55.579Z,18.22
2023-04-19T12:11:55.737Z,18.15
2023-04-19T12:12:55.926Z,18.08
2023-04-19T12:13:56.143Z,18.08
2023-04-19T12:14:56.374Z,18.00
2023-04-19T12:15:56.492Z,17.98
2023-04-19T12:16:56.692Z,17.98
2023-04-19T12:17:57.637Z,18.04
2023-04-19T12:18:56.990Z,18.03
2023-04-19T12:19:57.177Z,17.95
2023-04-19T12:20:58.317Z,17.95
2023-04-19T12:21:57.486Z,17.89
2023-04-19T12:22:57.660Z,17.90
2023-04-19T12:23:57.861Z,17.85
2023-04-19T12:24:58.038Z,17.90
2023-04-19T12:25:58.198Z,17.86
2023-04-19T12:27:04.598Z,17.98
2023-04-19T12:27:59.537Z,18.05
2023-04-19T12:28:58.726Z,18.04
2023-04-19T12:29:58.890Z,18.05
2023-04-19T12:30:59.070Z,18.10
2023-04-19T12:31:59.261Z,18.26
2023-04-19T12:32:59.467Z,18.37
2023-04-19T12:33:59.639Z,18.43
2023-04-19T12:34:59.793Z,18.45
2023-04-19T12:36:00.065Z,18.52
2023-04-19T12:37:00.182Z,18.53
2023-04-19T12:38:00.349Z,18.60
2023-04-19T12:39:00.483Z,18.62
2023-04-19T12:40:00.632Z,18.65
2023-04-19T12:41:00.817Z,18.65
2023-04-19T12:42:01.000Z,18.59
2023-04-19T12:43:01.136Z,18.49
2023-04-19T12:44:01.316Z,18.41
2023-04-19T12:45:01.503Z,18.35
2023-04-19T12:46:01.787Z,18.31
2023-04-19T12:47:01.815Z,18.20
2023-04-19T12:48:02.038Z,18.15
2023-04-19T12:49:02.241Z,18.08
2023-04-19T12:50:02.316Z,18.07
2023-04-19T12:51:02.524Z,18.08
2023-04-19T12:52:02.664Z,18.18
2023-04-19T12:53:02.853Z,18.11
2023-04-19T12:54:03.027Z,18.05
2023-04-19T12:55:03.226Z,18.07
2023-04-19T12:56:03.382Z,18.10
2023-04-19T12:57:03.658Z,18.15
2023-04-19T12:58:03.733Z,18.22
2023-04-19T12:59:03.896Z,18.31
2023-04-19T13:00:04.089Z,18.44
2023-04-19T13:01:04.249Z,18.55
2023-04-19T13:02:04.521Z,18.56
2023-04-19T13:03:04.764Z,18.55
2023-04-19T13:04:04.964Z,18.55
2023-04-19T13:05:04.965Z,18.49
2023-04-19T13:06:05.127Z,18.49
2023-04-19T13:07:05.330Z,18.40
2023-04-19T13:08:05.468Z,18.43